Time;durP1;ratioP1;P1;durP2;ratioP2;P2;SDS_P1;SDS_P2;PMS_P1;PMS_P2;Temp;Humidity;BMP_temperature;BMP_pressure;BME280_temperature;BME280_humidity;BME280_pressure;Samples;Min_cycle;Max_cycle;Signal;HPM_P1;HPM_P2
2021/12/25 00:00:21;;;;;;;2.40;1.02;;;31.20;94.10;;;;;;5110803;28;20363;-79
2021/12/25 00:02:49;;;;;;;0.70;0.50;;;31.20;93.00;;;;;;5110322;27;20136;-83
2021/12/25 00:05:16;;;;;;;1.63;0.90;;;31.20;93.40;;;;;;5109073;28;20099;-79
2021/12/25 00:07:44;;;;;;;4.68;1.20;;;31.20;93.80;;;;;;5110618;28;20024;-87
2021/12/25 00:10:12;;;;;;;2.63;1.35;;;31.30;93.30;;;;;;5087668;28;20131;-79
2021/12/25 00:12:39;;;;;;;3.78;1.17;;;31.70;93.20;;;;;;5109203;28;20069;-79
2021/12/25 00:15:07;;;;;;;3.60;1.08;;;31.80;92.60;;;;;;5103613;28;20084;-76
2021/12/25 00:17:35;;;;;;;2.47;1.38;;;31.80;92.30;;;;;;5105237;28;20020;-77
2021/12/25 00:20:03;;;;;;;3.03;1.02;;;31.70;91.60;;;;;;5101429;28;20145;-78
2021/12/25 00:22:30;;;;;;;3.15;0.82;;;31.70;90.80;;;;;;5102999;28;20024;-83
2021/12/25 00:24:57;;;;;;;3.17;2.05;;;31.80;91.40;;;;;;5102698;28;20320;-76
2021/12/25 00:32:45;;;;;;;2.70;1.10;;;32.30;91.50;;;;;;5095666;28;20035;-76
2021/12/25 00:35:13;;;;;;;3.78;1.35;;;32.20;91.20;;;;;;5102643;28;20042;-75
2021/12/25 00:37:40;;;;;;;5.68;2.78;;;32.20;90.80;;;;;;5096946;28;20027;-77
2021/12/25 00:40:08;;;;;;;2.03;0.88;;;32.10;91.50;;;;;;5103789;28;20091;-77
2021/12/25 00:42:38;;;;;;;2.40;0.73;;;32.30;91.50;;;;;;5101518;28;20051;-76
2021/12/25 00:45:06;;;;;;;2.90;1.58;;;32.30;91.60;;;;;;5103445;28;20020;-77
2021/12/25 00:47:33;;;;;;;2.70;0.60;;;32.60;91.50;;;;;;5107960;28;20087;-76
2021/12/25 00:50:01;;;;;;;3.33;1.48;;;32.60;90.40;;;;;;5103813;28;20085;-81
2021/12/25 00:52:28;;;;;;;2.78;0.52;;;32.80;90.00;;;;;;5093734;28;20027;-78
2021/12/25 00:54:55;;;;;;;2.63;0.90;;;32.80;89.60;;;;;;5106611;28;20130;-75
2021/12/25 00:57:23;;;;;;;4.18;0.70;;;32.90;89.40;;;;;;5108575;28;20388;-76
2021/12/25 00:59:50;;;;;;;2.92;0.65;;;32.80;87.40;;;;;;5107173;28;20059;-79
2021/12/25 01:02:18;;;;;;;1.00;0.40;;;32.50;89.30;;;;;;5107434;28;20480;-77
2021/12/25 01:04:45;;;;;;;1.83;1.20;;;32.80;90.10;;;;;;5108632;28;20031;-76
2021/12/25 01:07:13;;;;;;;4.22;1.30;;;33.10;87.00;;;;;;5088984;28;20440;-76
2021/12/25 01:09:40;;;;;;;3.15;0.93;;;33.30;87.10;;;;;;5108325;28;20032;-75
2021/12/25 01:12:08;;;;;;;1.42;0.45;;;33.30;87.40;;;;;;5108205;28;20102;-76
2021/12/25 01:14:47;;;;;;;2.05;0.70;;;33.50;85.80;;;;;;5098896;28;20104;-76
2021/12/25 01:17:44;;;;;;;2.50;0.50;;;33.80;86.90;;;;;;5104945;28;20032;-75
2021/12/25 01:25:51;;;;;;;1.10;0.52;;;33.80;84.30;;;;;;5107447;28;20097;-76
2021/12/25 01:28:52;;;;;;;0.90;0.60;;;34.30;85.10;;;;;;5095511;28;20058;-78
2021/12/25 01:31:14;;;;;;;1.00;0.70;;;34.40;80.60;;;;;;5109245;28;20031;-79
2021/12/25 01:39:17;;;;;;;3.05;0.50;;;33.70;80.30;;;;;;5110594;28;20077;-77
2021/12/25 01:47:44;;;;;;;1.88;0.75;;;33.60;81.30;;;;;;5109450;28;20024;-76
2021/12/25 01:49:57;;;;;;;3.03;2.72;;;34.20;81.20;;;;;;5103465;28;20024;-76
2021/12/25 01:52:29;;;;;;;1.27;0.50;;;34.30;79.60;;;;;;5106194;28;20015;-79
2021/12/25 01:55:02;;;;;;;0.60;0.40;;;34.20;79.00;;;;;;5098244;28;20035;-76
2021/12/25 01:57:31;;;;;;;1.17;0.70;;;34.30;80.40;;;;;;5111255;27;20023;-77
2021/12/25 02:00:00;;;;;;;2.05;1.02;;;34.60;77.20;;;;;;5109918;28;20125;-76
2021/12/25 02:02:29;;;;;;;1.40;0.52;;;34.70;78.00;;;;;;5107089;28;20107;-77
2021/12/25 02:04:57;;;;;;;2.38;0.73;;;34.90;78.30;;;;;;5101626;28;20024;-76
2021/12/25 02:07:24;;;;;;;3.25;0.88;;;35.10;78.50;;;;;;5101499;28;20061;-76
2021/12/25 02:09:51;;;;;;;6.68;0.70;;;35.40;78.10;;;;;;5109976;27;20473;-77
2021/12/25 02:12:19;;;;;;;2.05;0.70;;;35.70;77.50;;;;;;5109620;27;20115;-77
2021/12/25 02:14:48;;;;;;;2.17;0.85;;;35.90;75.70;;;;;;5111245;28;20397;-76
2021/12/25 02:17:22;;;;;;;1.00;0.70;;;35.70;76.40;;;;;;5106967;27;20027;-76
2021/12/25 02:20:17;;;;;;;1.55;0.90;;;35.60;75.70;;;;;;5111733;28;20047;-77
2021/12/25 02:22:46;;;;;;;1.52;0.70;;;35.70;77.10;;;;;;5103961;28;20397;-77
2021/12/25 02:25:14;;;;;;;3.58;0.50;;;36.00;76.10;;;;;;5102405;28;20023;-77
2021/12/25 02:27:44;;;;;;;3.10;0.65;;;36.30;74.50;;;;;;5108698;27;20413;-78
2021/12/25 02:30:11;;;;;;;2.28;0.70;;;36.40;75.10;;;;;;5107316;28;20027;-73
2021/12/25 02:32:39;;;;;;;1.33;0.77;;;36.60;72.50;;;;;;5108012;28;20019;-72
2021/12/25 02:35:06;;;;;;;1.95;0.75;;;36.50;73.70;;;;;;5105940;27;20027;-72
2021/12/25 02:37:34;;;;;;;1.42;0.70;;;36.50;73.20;;;;;;5108701;27;20028;-78
2021/12/25 02:40:02;;;;;;;2.50;0.70;;;36.50;73.90;;;;;;5101074;27;20115;-77
2021/12/25 02:42:29;;;;;;;1.35;0.47;;;36.60;73.30;;;;;;5098877;28;20441;-78
2021/12/25 02:44:56;;;;;;;1.42;0.90;;;36.80;74.50;;;;;;5103996;28;20050;-79
2021/12/25 02:47:24;;;;;;;2.72;0.63;;;36.90;72.50;;;;;;5106414;28;20106;-79
2021/12/25 02:49:52;;;;;;;2.75;1.23;;;36.70;72.30;;;;;;5107039;28;20047;-80
2021/12/25 02:52:20;;;;;;;3.05;1.02;;;36.50;71.20;;;;;;5100132;28;20413;-80
2021/12/25 02:54:47;;;;;;;1.80;1.00;;;36.10;72.20;;;;;;5098239;27;20036;-78
2021/12/25 02:57:16;;;;;;;2.47;0.60;;;36.00;71.90;;;;;;5101450;28;20030;-78
2021/12/25 02:59:43;;;;;;;2.33;0.88;;;36.20;72.00;;;;;;5109877;28;20035;-79
2021/12/25 03:02:16;;;;;;;1.77;0.60;;;36.40;71.70;;;;;;5110733;28;20050;-81
2021/12/25 03:04:49;;;;;;;1.67;0.70;;;36.50;71.70;;;;;;5112364;28;20032;-83
2021/12/25 03:07:17;;;;;;;1.23;0.73;;;36.30;70.50;;;;;;5110708;28;20031;-80
2021/12/25 03:09:45;;;;;;;1.73;1.15;;;36.30;69.60;;;;;;5111158;28;20042;-80
2021/12/25 03:12:15;;;;;;;0.80;0.60;;;36.10;70.10;;;;;;5111377;28;20047;-79
2021/12/25 03:15:05;;;;;;;4.05;2.22;;;35.80;69.50;;;;;;5111493;28;20039;-80
2021/12/25 03:17:33;;;;;;;1.13;0.90;;;35.70;69.30;;;;;;5111771;28;20040;-81
2021/12/25 03:20:01;;;;;;;1.73;0.70;;;36.00;70.70;;;;;;5112052;28;20046;-80
2021/12/25 03:22:29;;;;;;;2.05;1.02;;;36.60;70.50;;;;;;5107028;28;20103;-81
2021/12/25 03:24:56;;;;;;;1.10;0.70;;;37.10;71.30;;;;;;5111966;28;20016;-81
2021/12/25 03:27:24;;;;;;;1.02;0.70;;;37.40;69.50;;;;;;5105851;28;20019;-79
2021/12/25 03:29:51;;;;;;;1.20;0.63;;;37.70;68.90;;;;;;5099706;28;20027;-80
2021/12/25 03:32:19;;;;;;;1.88;0.57;;;37.40;67.10;;;;;;5111724;28;20039;-80
2021/12/25 03:34:46;;;;;;;1.00;0.43;;;37.30;67.70;;;;;;5106905;28;20024;-80
2021/12/25 03:37:13;;;;;;;1.10;0.60;;;37.60;66.60;;;;;;5109136;28;20058;-81
2021/12/25 03:39:41;;;;;;;2.47;0.88;;;37.70;66.30;;;;;;5108039;28;20044;-84
2021/12/25 03:42:08;;;;;;;2.10;0.80;;;37.70;65.60;;;;;;5111392;28;20400;-79
2021/12/25 03:44:36;;;;;;;1.27;0.50;;;37.70;69.90;;;;;;5111335;28;20035;-80
2021/12/25 03:47:21;;;;;;;1.88;0.85;;;37.80;66.40;;;;;;5109659;28;20032;-81
2021/12/25 03:58:11;;;;;;;1.00;0.68;;;38.30;65.60;;;;;;5103188;28;20103;-80
2021/12/25 04:00:41;;;;;;;2.15;0.70;;;38.10;64.20;;;;;;5109798;28;20038;-80
2021/12/25 04:03:15;;;;;;;1.80;0.93;;;37.30;65.00;;;;;;5108288;28;20374;-80
2021/12/25 04:05:44;;;;;;;1.75;0.95;;;36.90;65.00;;;;;;5106996;28;20083;-79
2021/12/25 04:08:14;;;;;;;0.85;0.63;;;37.00;65.60;;;;;;5111883;28;20030;-79
2021/12/25 04:10:45;;;;;;;0.90;0.52;;;37.20;65.50;;;;;;5109402;28;20062;-80
2021/12/25 04:13:18;;;;;;;2.25;0.70;;;37.70;65.00;;;;;;5110995;28;20049;-81
2021/12/25 04:15:46;;;;;;;2.72;1.10;;;37.50;64.10;;;;;;5109966;28;20031;-81
2021/12/25 04:18:13;;;;;;;3.15;0.77;;;37.20;65.00;;;;;;5111031;28;20038;-82
2021/12/25 04:20:41;;;;;;;0.75;0.60;;;36.70;65.20;;;;;;5097777;28;20031;-81
2021/12/25 04:23:15;;;;;;;1.05;0.50;;;36.20;66.10;;;;;;5110032;28;20067;-82
2021/12/25 04:25:43;;;;;;;2.03;0.60;;;36.00;67.50;;;;;;5109874;28;20035;-83
2021/12/25 04:28:27;;;;;;;1.92;0.50;;;35.90;66.40;;;;;;5110363;28;20024;-83
2021/12/25 04:31:23;;;;;;;3.72;0.70;;;35.70;66.90;;;;;;5108314;28;20028;-81
2021/12/25 05:01:44;;;;;;;1.52;0.52;;;34.00;77.60;;;;;;5052823;28;22290;-80
2021/12/25 05:01:56;;;;;;;1.65;0.75;;;33.40;79.40;;;;;;5109809;28;20081;-84
2021/12/25 05:04:32;;;;;;;2.63;0.90;;;33.30;79.80;;;;;;5109816;28;20039;-79
2021/12/25 05:07:00;;;;;;;1.40;0.85;;;33.10;81.00;;;;;;5114875;28;20035;-81
2021/12/25 05:09:27;;;;;;;1.13;0.68;;;33.10;81.00;;;;;;5118860;28;20031;-78
2021/12/25 05:11:54;;;;;;;1.38;0.70;;;33.10;81.30;;;;;;5113804;28;20020;-82
2021/12/25 05:14:22;;;;;;;2.33;0.68;;;33.00;81.00;;;;;;5110419;28;20137;-81
2021/12/25 05:16:49;;;;;;;3.03;0.77;;;32.80;82.20;;;;;;5114563;28;20348;-85
2021/12/25 05:19:16;;;;;;;1.55;1.20;;;32.60;82.80;;;;;;5112824;28;20031;-83
2021/12/25 05:21:44;;;;;;;1.48;0.60;;;32.60;83.00;;;;;;5114292;28;20419;-83
2021/12/25 05:24:11;;;;;;;0.88;0.65;;;32.40;84.00;;;;;;5110775;28;20055;-83
2021/12/25 05:26:39;;;;;;;1.40;0.60;;;32.30;84.20;;;;;;5113838;28;20382;-83
2021/12/25 05:29:07;;;;;;;1.58;0.80;;;32.20;84.80;;;;;;5112501;27;20374;-84
2021/12/25 05:31:37;;;;;;;3.85;0.60;;;32.00;85.30;;;;;;5112505;28;20564;-83
2021/12/25 05:34:05;;;;;;;2.72;1.10;;;31.90;85.80;;;;;;5107033;28;20019;-85
2021/12/25 05:36:32;;;;;;;3.88;0.73;;;31.90;86.90;;;;;;5111575;28;20470;-81
2021/12/25 05:39:00;;;;;;;4.60;0.98;;;31.80;86.50;;;;;;5111116;28;20082;-83
2021/12/25 05:41:31;;;;;;;3.67;0.60;;;31.80;86.30;;;;;;5104157;28;20070;-82
2021/12/25 05:43:58;;;;;;;2.15;0.60;;;31.70;87.10;;;;;;5112300;28;20110;-79
2021/12/25 05:46:26;;;;;;;2.28;0.70;;;31.70;87.70;;;;;;5112208;28;20454;-81
2021/12/25 05:48:53;;;;;;;3.03;0.70;;;31.60;88.40;;;;;;5113862;28;20028;-81
2021/12/25 05:51:20;;;;;;;1.70;0.65;;;31.40;89.50;;;;;;5113113;28;20397;-83
2021/12/25 05:53:48;;;;;;;0.88;0.63;;;31.10;90.00;;;;;;5112599;28;20035;-81
2021/12/25 05:56:16;;;;;;;1.45;0.50;;;31.10;90.60;;;;;;5114402;28;20031;-83
2021/12/25 05:58:43;;;;;;;2.25;1.13;;;31.00;90.40;;;;;;5111942;28;20035;-85
2021/12/25 06:01:11;;;;;;;2.60;0.52;;;30.90;90.70;;;;;;5111529;28;20483;-81
2021/12/25 06:03:39;;;;;;;0.88;0.40;;;30.80;91.00;;;;;;5105405;28;20031;-81
2021/12/25 06:06:07;;;;;;;3.45;0.70;;;30.60;91.30;;;;;;5083793;28;20049;-82
2021/12/25 06:08:34;;;;;;;1.58;0.60;;;30.50;91.60;;;;;;5113760;28;20027;-80
2021/12/25 06:11:03;;;;;;;6.43;0.88;;;30.30;91.80;;;;;;5110887;28;20028;-82
2021/12/25 06:13:31;;;;;;;1.33;0.50;;;30.20;92.00;;;;;;5114243;28;20490;-84
2021/12/25 06:15:59;;;;;;;2.67;0.38;;;30.10;92.30;;;;;;5110924;28;20189;-82
2021/12/25 06:18:26;;;;;;;5.65;0.68;;;30.00;92.70;;;;;;5113523;28;20023;-82
2021/12/25 06:20:53;;;;;;;6.30;1.25;;;29.90;92.90;;;;;;5111566;28;20454;-81
2021/12/25 06:23:21;;;;;;;4.25;0.70;;;29.80;93.20;;;;;;5113452;28;20069;-82
2021/12/25 06:25:48;;;;;;;5.00;0.52;;;29.90;93.30;;;;;;5109871;28;20023;-84
2021/12/25 06:28:15;;;;;;;2.20;0.60;;;29.80;93.40;;;;;;5104944;28;20027;-81
2021/12/25 06:30:44;;;;;;;1.58;0.88;;;29.60;93.70;;;;;;5106631;28;20059;-81
2021/12/25 06:33:11;;;;;;;2.55;0.90;;;29.50;94.10;;;;;;5109304;28;20445;-84
2021/12/25 06:35:39;;;;;;;1.52;0.45;;;29.30;94.20;;;;;;5114668;27;20035;-82
2021/12/25 06:38:06;;;;;;;2.00;0.52;;;29.20;94.50;;;;;;5116003;28;20020;-86
2021/12/25 06:40:33;;;;;;;4.25;0.60;;;29.10;94.60;;;;;;5094777;28;20048;-82
2021/12/25 06:43:01;;;;;;;3.33;0.73;;;29.00;95.10;;;;;;5116188;28;20028;-82
2021/12/25 06:45:29;;;;;;;2.17;0.82;;;28.90;95.00;;;;;;5100975;28;20370;-83
2021/12/25 06:47:56;;;;;;;3.60;0.60;;;28.80;95.30;;;;;;5101618;28;20019;-83
2021/12/25 06:50:24;;;;;;;3.88;0.90;;;28.80;95.60;;;;;;5111706;28;20111;-82
2021/12/25 06:52:51;;;;;;;3.92;0.75;;;28.80;95.60;;;;;;5110584;27;20052;-80
2021/12/25 06:55:18;;;;;;;2.15;1.10;;;28.80;95.70;;;;;;5112398;28;20393;-81
2021/12/25 06:57:52;;;;;;;2.10;0.70;;;28.70;95.90;;;;;;5113931;28;20023;-82
2021/12/25 07:00:21;;;;;;;0.70;0.40;;;28.70;96.10;;;;;;5115202;28;20085;-82
2021/12/25 07:02:48;;;;;;;1.75;0.57;;;28.60;96.30;;;;;;5107011;28;20027;-83
2021/12/25 07:05:16;;;;;;;5.47;0.60;;;28.50;96.50;;;;;;5113357;28;20114;-82
2021/12/25 07:07:44;;;;;;;5.00;0.63;;;28.50;96.60;;;;;;5112955;28;20106;-82
2021/12/25 07:10:11;;;;;;;2.85;0.60;;;28.40;96.80;;;;;;5109679;28;20035;-83
2021/12/25 07:12:43;;;;;;;1.65;0.38;;;28.40;97.10;;;;;;5112846;28;20028;-81
2021/12/25 07:15:10;;;;;;;2.85;0.82;;;28.40;97.20;;;;;;5111841;28;20497;-82
2021/12/25 07:17:38;;;;;;;7.30;0.70;;;28.40;97.30;;;;;;5112600;28;20028;-82
2021/12/25 07:20:05;;;;;;;1.83;0.47;;;28.40;97.50;;;;;;5113109;28;20028;-82
2021/12/25 07:22:33;;;;;;;3.70;0.40;;;28.40;97.80;;;;;;5110979;28;20050;-82
2021/12/25 07:25:00;;;;;;;1.23;0.47;;;28.40;97.60;;;;;;5112353;28;20024;-82
2021/12/25 07:27:28;;;;;;;2.03;0.55;;;28.40;97.70;;;;;;5108002;28;20063;-82
2021/12/25 07:29:55;;;;;;;0.50;0.40;;;28.40;97.70;;;;;;5112598;28;20525;-82
2021/12/25 07:32:22;;;;;;;0.80;0.50;;;28.40;97.80;;;;;;5112397;28;20084;-84
2021/12/25 07:34:51;;;;;;;3.15;0.50;;;28.30;98.00;;;;;;5104560;28;20035;-82
2021/12/25 07:37:19;;;;;;;4.43;1.10;;;28.30;98.20;;;;;;5112761;28;20024;-83
2021/12/25 07:39:46;;;;;;;2.72;0.50;;;28.30;98.30;;;;;;5110862;28;20052;-82
2021/12/25 07:42:14;;;;;;;0.77;0.57;;;28.20;98.40;;;;;;5109666;28;20415;-84
2021/12/25 07:44:42;;;;;;;3.00;0.60;;;28.20;98.50;;;;;;5110580;28;20023;-83
2021/12/25 07:47:11;;;;;;;1.55;0.55;;;28.20;98.70;;;;;;5114087;28;20027;-82
2021/12/25 07:49:39;;;;;;;1.55;0.60;;;28.20;98.80;;;;;;5112444;28;20053;-81
2021/12/25 07:52:06;;;;;;;3.78;0.95;;;28.10;98.90;;;;;;5111779;28;20016;-81
2021/12/25 07:54:34;;;;;;;2.72;0.63;;;28.10;99.10;;;;;;5112924;28;20023;-81
2021/12/25 07:57:01;;;;;;;4.80;0.75;;;28.00;99.20;;;;;;5110486;28;20022;-83
2021/12/25 07:59:28;;;;;;;3.10;1.02;;;28.00;99.30;;;;;;5111670;28;20385;-82
2021/12/25 08:01:56;;;;;;;2.00;0.75;;;28.00;99.40;;;;;;5110407;28;20385;-82
2021/12/25 08:04:23;;;;;;;5.20;0.95;;;28.00;99.50;;;;;;5108212;28;20522;-82
2021/12/25 08:06:51;;;;;;;2.17;0.50;;;28.00;99.40;;;;;;5104140;28;20069;-82
2021/12/25 08:09:27;;;;;;;2.45;0.70;;;28.10;99.60;;;;;;5111821;28;20559;-82
2021/12/25 08:11:57;;;;;;;3.10;0.85;;;28.10;99.60;;;;;;5111040;28;20027;-81
2021/12/25 08:14:25;;;;;;;2.53;1.13;;;28.10;99.60;;;;;;5111089;28;20032;-81
2021/12/25 08:16:54;;;;;;;3.28;0.80;;;28.00;99.70;;;;;;5110969;28;20075;-81
2021/12/25 08:19:22;;;;;;;1.95;1.02;;;28.00;99.70;;;;;;5108258;28;20035;-82
2021/12/25 08:21:51;;;;;;;2.85;0.60;;;28.10;99.70;;;;;;5111212;28;20070;-81
2021/12/25 08:24:19;;;;;;;7.88;1.00;;;28.10;99.70;;;;;;5104147;28;20027;-82
2021/12/25 08:26:47;;;;;;;4.90;1.00;;;28.10;99.80;;;;;;5104882;28;20020;-82
2021/12/25 08:29:15;;;;;;;4.22;0.52;;;28.10;99.90;;;;;;5110514;28;20118;-81
2021/12/25 08:31:43;;;;;;;5.50;1.35;;;28.00;99.90;;;;;;5111212;28;20028;-81
2021/12/25 08:34:11;;;;;;;1.42;0.50;;;28.00;99.90;;;;;;5111506;28;20032;-82
2021/12/25 08:36:39;;;;;;;5.20;0.70;;;27.90;99.90;;;;;;5110866;28;20485;-81
2021/12/25 08:39:07;;;;;;;2.50;0.50;;;27.80;99.90;;;;;;5109790;28;20490;-83
2021/12/25 08:41:37;;;;;;;3.30;0.50;;;27.80;99.90;;;;;;5110077;28;20032;-82
2021/12/25 08:44:30;;;;;;;1.13;0.70;;;27.70;99.90;;;;;;5113611;28;20190;-81
2021/12/25 08:46:59;;;;;;;2.25;0.50;;;27.70;99.90;;;;;;5107486;28;20374;-82
2021/12/25 08:49:29;;;;;;;2.75;0.63;;;27.70;99.90;;;;;;5112821;28;20352;-82
2021/12/25 08:52:02;;;;;;;3.65;0.47;;;27.60;99.90;;;;;;5109211;28;20035;-82
2021/12/25 08:54:29;;;;;;;3.28;0.70;;;27.60;99.90;;;;;;5099187;28;20415;-80
2021/12/25 08:56:59;;;;;;;3.10;0.82;;;27.60;99.90;;;;;;5109967;28;20028;-82
2021/12/25 08:59:27;;;;;;;2.97;0.75;;;27.60;99.90;;;;;;5109604;28;20063;-82
2021/12/25 09:01:56;;;;;;;0.90;0.45;;;27.60;99.90;;;;;;5103597;28;20035;-81
2021/12/25 09:04:24;;;;;;;1.70;0.50;;;27.60;99.90;;;;;;5110609;28;20039;-80
2021/12/25 09:06:51;;;;;;;3.22;0.80;;;27.60;99.90;;;;;;5109212;28;20027;-81
2021/12/25 09:09:18;;;;;;;2.70;0.77;;;27.60;99.90;;;;;;5105788;28;20454;-82
2021/12/25 09:11:46;;;;;;;2.40;0.52;;;27.50;99.90;;;;;;5109719;28;20059;-81
2021/12/25 09:14:13;;;;;;;2.42;0.70;;;27.50;99.90;;;;;;5106673;28;20059;-81
2021/12/25 09:16:40;;;;;;;3.40;0.55;;;27.40;99.90;;;;;;5109432;28;20024;-81
2021/12/25 09:19:09;;;;;;;6.30;1.42;;;27.40;99.90;;;;;;5110759;28;20401;-83
2021/12/25 09:21:37;;;;;;;4.38;0.60;;;27.30;99.90;;;;;;5101087;28;20024;-81
2021/12/25 09:24:05;;;;;;;2.95;0.55;;;27.30;99.90;;;;;;5095456;28;20027;-82
2021/12/25 09:26:32;;;;;;;2.58;0.68;;;27.30;99.90;;;;;;5108523;28;20024;-83
2021/12/25 09:29:00;;;;;;;1.30;0.70;;;27.20;99.90;;;;;;5109664;28;20059;-81
2021/12/25 09:31:28;;;;;;;2.58;0.98;;;27.10;99.90;;;;;;5109557;28;20542;-81
2021/12/25 09:33:56;;;;;;;4.25;1.15;;;27.10;99.90;;;;;;5109385;28;20492;-81
2021/12/25 09:36:24;;;;;;;2.65;0.80;;;27.10;99.90;;;;;;5110999;28;20059;-80
2021/12/25 09:38:52;;;;;;;2.78;0.93;;;27.00;99.90;;;;;;5110384;28;20048;-83
2021/12/25 09:41:19;;;;;;;2.40;0.63;;;27.00;99.90;;;;;;5102782;28;20042;-81
2021/12/25 09:43:48;;;;;;;6.10;0.70;;;26.90;99.90;;;;;;5106520;28;20055;-79
2021/12/25 09:46:22;;;;;;;7.47;0.73;;;26.90;99.90;;;;;;5109168;28;20058;-80
2021/12/25 09:48:50;;;;;;;2.88;1.23;;;26.80;99.90;;;;;;5100765;28;20369;-82
2021/12/25 09:51:18;;;;;;;3.83;0.93;;;26.80;99.90;;;;;;5101071;28;20032;-81
2021/12/25 09:54:00;;;;;;;4.57;0.77;;;26.80;99.90;;;;;;5111679;28;20024;-81
2021/12/25 09:56:29;;;;;;;2.58;0.70;;;26.70;99.90;;;;;;5100522;28;20028;-78
2021/12/25 09:58:56;;;;;;;3.25;0.70;;;26.60;99.90;;;;;;5089210;28;20053;-77
2021/12/25 10:01:47;;;;;;;1.85;0.70;;;26.60;99.90;;;;;;5105453;28;20061;-80
2021/12/25 10:04:35;;;;;;;3.13;1.20;;;26.60;99.90;;;;;;5096544;28;20023;-81
2021/12/25 10:07:29;;;;;;;3.63;1.05;;;26.50;99.90;;;;;;5103461;28;20175;-80
2021/12/25 10:10:10;;;;;;;3.35;0.95;;;26.40;99.90;;;;;;5104836;28;20024;-80
2021/12/25 10:12:49;;;;;;;3.58;1.42;;;26.30;99.90;;;;;;5098862;27;20504;-80
2021/12/25 10:15:19;;;;;;;3.33;0.85;;;26.20;99.90;;;;;;5101370;27;20027;-82
2021/12/25 10:17:48;;;;;;;4.03;0.60;;;26.10;99.90;;;;;;5099130;27;20028;-79
2021/12/25 10:20:17;;;;;;;2.55;0.85;;;26.00;99.90;;;;;;5100333;28;20109;-78
2021/12/25 10:23:02;;;;;;;2.47;1.02;;;26.00;99.90;;;;;;5103883;28;20028;-81
2021/12/25 10:25:35;;;;;;;3.75;1.00;;;25.90;99.90;;;;;;5098272;28;20024;-82
2021/12/25 10:28:06;;;;;;;3.72;0.98;;;25.90;99.90;;;;;;5104293;28;20023;-80
2021/12/25 10:30:48;;;;;;;5.88;1.00;;;25.80;99.90;;;;;;5110552;28;20027;-79
2021/12/25 10:33:27;;;;;;;6.47;1.00;;;25.80;99.90;;;;;;5110846;28;21915;-81
2021/12/25 10:35:56;;;;;;;3.13;0.80;;;25.80;99.90;;;;;;5107872;28;20493;-81
2021/12/25 10:38:24;;;;;;;5.65;0.93;;;25.80;99.90;;;;;;5109116;28;20043;-81
2021/12/25 10:41:14;;;;;;;3.22;0.93;;;25.70;99.90;;;;;;5106125;28;20469;-81
2021/12/25 10:43:42;;;;;;;2.88;0.60;;;25.70;99.90;;;;;;5105251;28;20068;-80
2021/12/25 10:46:10;;;;;;;4.25;0.80;;;25.70;99.90;;;;;;5107048;27;20390;-80
2021/12/25 10:48:38;;;;;;;3.88;0.95;;;25.60;99.90;;;;;;5109880;28;20035;-80
2021/12/25 10:51:05;;;;;;;3.67;1.00;;;25.60;99.90;;;;;;5106835;28;20019;-81
2021/12/25 10:53:42;;;;;;;8.88;1.50;;;25.50;99.90;;;;;;5112362;28;20027;-78
2021/12/25 10:56:15;;;;;;;2.65;1.13;;;25.40;99.90;;;;;;5102777;27;20027;-79
2021/12/25 10:58:44;;;;;;;3.33;0.93;;;25.30;99.90;;;;;;5102943;28;20122;-79
2021/12/25 11:01:15;;;;;;;4.15;0.90;;;25.20;99.90;;;;;;5101426;28;20019;-79
2021/12/25 11:03:46;;;;;;;2.55;1.05;;;25.20;99.90;;;;;;5101661;28;20443;-79
2021/12/25 11:06:18;;;;;;;4.25;1.35;;;25.20;99.90;;;;;;5100115;28;20393;-79
2021/12/25 11:08:47;;;;;;;5.88;1.98;;;25.10;99.90;;;;;;5100763;28;20034;-79
2021/12/25 11:11:20;;;;;;;4.30;1.58;;;25.10;99.90;;;;;;5099084;28;20482;-79
2021/12/25 11:13:51;;;;;;;3.70;1.30;;;25.10;99.90;;;;;;5098781;28;20059;-80
2021/12/25 11:16:27;;;;;;;5.53;0.77;;;25.10;99.90;;;;;;5099487;28;20031;-79
2021/12/25 11:19:28;;;;;;;5.32;1.40;;;25.10;99.90;;;;;;5104919;28;20066;-80
2021/12/25 11:21:56;;;;;;;9.85;1.13;;;25.10;99.90;;;;;;5100086;28;20027;-79
2021/12/25 11:24:32;;;;;;;4.72;1.73;;;25.00;99.90;;;;;;5111222;28;20492;-80
2021/12/25 11:27:04;;;;;;;;;;;25.00;99.90;;;;;;5103638;28;20028;-80
2021/12/25 11:29:36;;;;;;;14.48;0.90;;;25.00;99.90;;;;;;5099214;28;19908;-80
2021/12/25 11:32:05;;;;;;;4.85;0.85;;;25.00;99.90;;;;;;5105919;28;20032;-79
2021/12/25 11:34:33;;;;;;;5.97;0.63;;;24.90;99.90;;;;;;5097567;28;20474;-80
2021/12/25 11:37:01;;;;;;;1.80;0.32;;;24.90;99.90;;;;;;5101351;28;20031;-80
2021/12/25 11:39:30;;;;;;;2.30;0.40;;;24.90;99.90;;;;;;5099460;28;20048;-79
2021/12/25 11:42:08;;;;;;;4.88;1.00;;;24.90;99.90;;;;;;5110036;28;20047;-80
2021/12/25 11:44:44;;;;;;;4.72;0.60;;;24.90;99.90;;;;;;5098652;28;20062;-79
2021/12/25 11:47:39;;;;;;;2.42;0.68;;;24.80;99.90;;;;;;5101661;27;20458;-80
2021/12/25 11:50:10;;;;;;;2.47;0.50;;;24.90;99.90;;;;;;5102182;28;20058;-79
2021/12/25 11:52:54;;;;;;;2.33;0.90;;;24.80;99.90;;;;;;5096464;28;20386;-79
2021/12/25 11:55:51;;;;;;;2.38;0.77;;;24.70;99.90;;;;;;5102727;28;20031;-79
2021/12/25 11:58:42;;;;;;;5.53;1.35;;;24.70;99.90;;;;;;5106820;28;20055;-79
2021/12/25 12:01:23;;;;;;;1.17;0.50;;;24.60;99.90;;;;;;5109871;28;20027;-82
2021/12/25 12:03:56;;;;;;;2.80;0.70;;;24.60;99.90;;;;;;5102752;28;20026;-78
2021/12/25 12:06:48;;;;;;;1.85;0.85;;;24.50;99.90;;;;;;5099981;28;20469;-80
2021/12/25 12:09:20;;;;;;;2.30;1.10;;;24.40;99.90;;;;;;5098580;28;20028;-79
2021/12/25 12:11:50;;;;;;;1.85;0.80;;;24.30;99.90;;;;;;5098130;28;20454;-77
2021/12/25 12:14:17;;;;;;;2.65;1.10;;;24.20;99.90;;;;;;5097431;28;21672;-78
2021/12/25 12:16:51;;;;;;;2.95;1.05;;;24.10;99.90;;;;;;5097410;28;20063;-78
2021/12/25 12:19:49;;;;;;;3.80;1.40;;;24.00;99.90;;;;;;5102380;28;20027;-78
2021/12/25 12:22:28;;;;;;;2.03;1.02;;;23.90;99.90;;;;;;5061949;28;20031;-81
2021/12/25 12:27:40;;;;;;;3.20;0.98;;;23.80;99.90;;;;;;5109356;28;20039;-81
2021/12/25 12:30:10;;;;;;;3.38;1.42;;;23.70;99.90;;;;;;5107302;28;20032;-80
2021/12/25 12:32:44;;;;;;;3.20;1.30;;;23.70;99.90;;;;;;5107429;28;21054;-80
2021/12/25 12:35:28;;;;;;;2.15;1.15;;;23.70;99.90;;;;;;5107073;28;20035;-81
2021/12/25 12:38:38;;;;;;;3.05;1.20;;;23.70;99.90;;;;;;5110872;28;20016;-79
2021/12/25 12:41:33;;;;;;;2.92;1.17;;;23.60;99.90;;;;;;5081034;28;20040;-80
2021/12/25 12:44:09;;;;;;;4.10;1.73;;;23.60;99.90;;;;;;5078074;28;20062;-80
2021/12/25 12:46:53;;;;;;;4.90;1.48;;;23.50;99.90;;;;;;5088142;28;20428;-80
2021/12/25 12:49:25;;;;;;;3.00;1.55;;;23.50;99.90;;;;;;5077248;28;20021;-80
2021/12/25 12:52:12;;;;;;;4.75;1.23;;;23.40;99.90;;;;;;5086764;28;20028;-80
2021/12/25 12:54:46;;;;;;;3.05;1.35;;;23.40;99.90;;;;;;5086870;28;20060;-80
2021/12/25 12:57:33;;;;;;;2.25;1.40;;;23.30;99.90;;;;;;5085568;28;20028;-80
2021/12/25 13:00:22;;;;;;;3.75;2.13;;;23.30;99.90;;;;;;5081666;28;20116;-80
2021/12/25 13:02:52;;;;;;;2.25;1.40;;;23.30;99.90;;;;;;5080047;28;20099;-80
2021/12/25 13:05:24;;;;;;;3.95;1.50;;;23.30;99.90;;;;;;5086697;28;20070;-79
2021/12/25 13:07:55;;;;;;;4.40;1.67;;;23.30;99.90;;;;;;5086479;28;20044;-79
2021/12/25 13:10:31;;;;;;;3.15;1.40;;;23.20;99.90;;;;;;5083768;28;20039;-79
2021/12/25 13:13:29;;;;;;;6.25;1.55;;;23.20;99.90;;;;;;5084993;28;20107;-79
2021/12/25 13:16:02;;;;;;;5.30;2.20;;;23.20;99.90;;;;;;5087616;28;20419;-81
2021/12/25 13:18:32;;;;;;;3.42;1.65;;;23.20;99.90;;;;;;5075270;28;20020;-81
2021/12/25 13:21:02;;;;;;;2.47;1.70;;;23.10;99.90;;;;;;5089223;28;20020;-82
2021/12/25 13:23:46;;;;;;;2.67;1.52;;;23.10;99.90;;;;;;5079658;28;20024;-82
2021/12/25 13:26:16;;;;;;;2.72;1.70;;;23.10;99.90;;;;;;5089859;28;20153;-82
2021/12/25 13:28:46;;;;;;;3.13;1.73;;;23.10;99.90;;;;;;5087000;28;20035;-81
2021/12/25 13:31:20;;;;;;;2.85;1.52;;;23.00;99.90;;;;;;5082541;28;20092;-82
2021/12/25 13:33:50;;;;;;;3.47;1.67;;;22.90;99.90;;;;;;5087639;28;20020;-81
2021/12/25 13:36:26;;;;;;;3.45;1.45;;;22.80;99.90;;;;;;5087375;28;20050;-82
2021/12/25 13:38:58;;;;;;;4.18;1.70;;;22.80;99.90;;;;;;5095240;28;20081;-80
2021/12/25 13:41:44;;;;;;;5.35;2.28;;;22.80;99.90;;;;;;5098612;28;20575;-81
2021/12/25 13:44:11;;;;;;;;;;;22.70;99.90;;;;;;5111306;28;20379;-80
2021/12/25 13:46:45;;;;;;;3.03;1.95;;;22.70;99.90;;;;;;5112036;28;19955;-80
2021/12/25 13:49:41;;;;;;;4.25;1.60;;;22.70;99.90;;;;;;5112735;28;20550;-79
2021/12/25 13:52:28;;;;;;;3.10;1.98;;;22.70;99.90;;;;;;5110668;28;20408;-79
2021/12/25 13:55:04;;;;;;;3.30;1.38;;;22.70;99.90;;;;;;5110806;27;20397;-80
2021/12/25 13:57:33;;;;;;;5.72;2.03;;;22.70;99.90;;;;;;5106397;28;20482;-80
2021/12/25 14:00:12;;;;;;;2.15;1.20;;;22.60;99.90;;;;;;5107567;28;20031;-80
2021/12/25 14:02:42;;;;;;;4.07;1.60;;;22.60;99.90;;;;;;5107842;27;20034;-80
2021/12/25 14:05:10;;;;;;;3.20;2.28;;;22.60;99.90;;;;;;5111688;28;20023;-84
2021/12/25 14:07:39;;;;;;;3.60;1.60;;;22.60;99.90;;;;;;5107652;28;20478;-81